This is the latest recevied weather packets stored in our database for station/object E25RIV-1. If no packets are shown the sender has not sent any weather packets the latest 10 day(s).
| Time | Temp. | Humidity | Pressure | Rain* | Wind** | Luminosity | Snow |
|---|---|---|---|---|---|---|---|
| 1777638271 | 29.44° C | 88% | 1003 hPa | - | - | 0 W/m² | - |
| 1777637647 | 29.44° C | 89% | 1004 hPa | - | - | 0 W/m² | - |
| 1777637023 | 29.44° C | 87% | 1004 hPa | - | - | 0 W/m² | - |
| 1777636399 | 29.44° C | 83% | 1005 hPa | - | - | 0 W/m² | - |
| 1777635775 | 30° C | 75% | 1005 hPa | - | - | 0 W/m² | - |
| 1777635151 | 30.56° C | 69% | 1004 hPa | - | - | 0 W/m² | - |
| 1777634527 | 32.22° C | 62% | 1001 hPa | - | - | 0 W/m² | - |
| 1777633903 | 33.33° C | 63% | 1001 hPa | - | - | 0 W/m² | - |
| 1777633279 | 33.33° C | 61% | 1000 hPa | - | - | 0 W/m² | - |
| 1777632655 | 33.89° C | 60% | 999 hPa | - | - | 0 W/m² | - |
| 1777632031 | 33.89° C | 60% | 999 hPa | - | - | 0 W/m² | - |
| 1777631407 | 34.44° C | 57% | 997 hPa | - | - | 0 W/m² | - |
| 1777630783 | 35° C | 54% | 996 hPa | - | - | 0 W/m² | - |
| 1777630159 | 36.11° C | 51% | 994 hPa | - | - | 0 W/m² | - |
| 1777629535 | 36.11° C | 50% | 993 hPa | - | - | 0 W/m² | - |
| 1777628911 | 35.56° C | 52% | 995 hPa | - | - | 0 W/m² | - |
| 1777628287 | 35.56° C | 52% | 994 hPa | - | - | 0 W/m² | - |
| 1777627663 | 35.56° C | 51% | 993 hPa | - | - | 0 W/m² | - |
| 1777627039 | 35° C | 52% | 994 hPa | - | - | 0 W/m² | - |
| 1777626415 | 35.56° C | 51% | 994 hPa | - | - | 0 W/m² | - |
| 1777625791 | 37.22° C | 47% | 991 hPa | - | - | 0 W/m² | - |
| 1777625167 | 37.22° C | 44% | 989 hPa | - | - | 0 W/m² | - |
| 1777624543 | 37.78° C | 43% | 989 hPa | - | - | 0 W/m² | - |
| 1777623920 | 38.33° C | 42% | 988 hPa | - | - | 0 W/m² | - |
| 1777623296 | 38.33° C | 40% | 987 hPa | - | - | 0 W/m² | - |
* Rain since midnight (hover to see other rain measurements)
** Current wind speed in m/s (hover to see current wind gust speed)